sensor_id;sensor_type;location;lat;lon;timestamp;pressure;altitude;pressure_sealevel;temperature;humidity
56950;BME280;74437;50.080;19.924;2024-03-02T00:00:15;98476.53;;;5.71;90.38
56950;BME280;74437;50.080;19.924;2024-03-02T00:02:44;98462.94;;;5.65;90.23
56950;BME280;74437;50.080;19.924;2024-03-02T00:05:21;98465.03;;;5.63;90.43
56950;BME280;74437;50.080;19.924;2024-03-02T00:07:57;98467.72;;;5.63;90.23
56950;BME280;74437;50.080;19.924;2024-03-02T00:10:25;98455.31;;;5.50;90.21
56950;BME280;74437;50.080;19.924;2024-03-02T00:12:55;98481.19;;;5.63;90.33
56950;BME280;74437;50.080;19.924;2024-03-02T00:17:56;98458.59;;;5.53;90.35
56950;BME280;74437;50.080;19.924;2024-03-02T00:20:22;98456.94;;;5.51;90.48
56950;BME280;74437;50.080;19.924;2024-03-02T00:22:49;98468.88;;;5.56;90.15
56950;BME280;74437;50.080;19.924;2024-03-02T00:25:15;98457.41;;;5.48;90.19
56950;BME280;74437;50.080;19.924;2024-03-02T00:27:40;98478.00;;;5.55;90.04
56950;BME280;74437;50.080;19.924;2024-03-02T00:31:25;98478.94;;;5.60;89.91
56950;BME280;74437;50.080;19.924;2024-03-02T00:33:20;98476.56;;;5.52;90.07
56950;BME280;74437;50.080;19.924;2024-03-02T00:35:46;98483.53;;;5.60;90.03
56950;BME280;74437;50.080;19.924;2024-03-02T00:38:12;98477.91;;;5.61;90.50
56950;BME280;74437;50.080;19.924;2024-03-02T00:40:39;98455.91;;;5.53;90.04
56950;BME280;74437;50.080;19.924;2024-03-02T00:43:05;98440.31;;;5.43;90.58
56950;BME280;74437;50.080;19.924;2024-03-02T00:45:30;98465.34;;;5.55;89.84
56950;BME280;74437;50.080;19.924;2024-03-02T00:47:56;98429.19;;;5.39;89.90
56950;BME280;74437;50.080;19.924;2024-03-02T00:50:21;98432.72;;;5.40;90.16
56950;BME280;74437;50.080;19.924;2024-03-02T00:52:46;98456.03;;;5.58;89.90
56950;BME280;74437;50.080;19.924;2024-03-02T00:55:14;98447.72;;;5.59;89.94
56950;BME280;74437;50.080;19.924;2024-03-02T00:57:39;98452.88;;;5.61;90.15
56950;BME280;74437;50.080;19.924;2024-03-02T01:00:05;98445.63;;;5.61;89.57
56950;BME280;74437;50.080;19.924;2024-03-02T01:02:35;98440.25;;;5.61;89.48
56950;BME280;74437;50.080;19.924;2024-03-02T01:05:00;98444.81;;;5.61;89.94
56950;BME280;74437;50.080;19.924;2024-03-02T01:07:26;98417.66;;;5.50;89.56
56950;BME280;74437;50.080;19.924;2024-03-02T01:09:51;98432.28;;;5.55;89.37
56950;BME280;74437;50.080;19.924;2024-03-02T01:12:17;98443.50;;;5.63;89.02
56950;BME280;74437;50.080;19.924;2024-03-02T01:14:42;98433.81;;;5.62;89.00
56950;BME280;74437;50.080;19.924;2024-03-02T01:17:07;98442.25;;;5.66;89.55
56950;BME280;74437;50.080;19.924;2024-03-02T01:19:33;98439.56;;;5.66;88.92
56950;BME280;74437;50.080;19.924;2024-03-02T01:21:58;98436.28;;;5.64;89.58
56950;BME280;74437;50.080;19.924;2024-03-02T01:24:23;98430.66;;;5.65;88.84
56950;BME280;74437;50.080;19.924;2024-03-02T01:26:49;98429.84;;;5.65;88.89
56950;BME280;74437;50.080;19.924;2024-03-02T01:29:14;98430.91;;;5.64;89.38
56950;BME280;74437;50.080;19.924;2024-03-02T01:31:39;98430.06;;;5.63;88.86
56950;BME280;74437;50.080;19.924;2024-03-02T01:34:07;98414.38;;;5.60;89.02
56950;BME280;74437;50.080;19.924;2024-03-02T01:36:33;98407.16;;;5.61;89.76
56950;BME280;74437;50.080;19.924;2024-03-02T01:38:58;98407.38;;;5.59;89.73
56950;BME280;74437;50.080;19.924;2024-03-02T01:41:23;98406.31;;;5.60;89.51
56950;BME280;74437;50.080;19.924;2024-03-02T01:43:49;98411.25;;;5.63;89.65
56950;BME280;74437;50.080;19.924;2024-03-02T01:46:14;98407.97;;;5.61;89.09
56950;BME280;74437;50.080;19.924;2024-03-02T01:48:39;98409.59;;;5.62;89.34
56950;BME280;74437;50.080;19.924;2024-03-02T01:51:05;98413.94;;;5.63;89.23
56950;BME280;74437;50.080;19.924;2024-03-02T01:53:31;98347.13;;;5.25;89.51
56950;BME280;74437;50.080;19.924;2024-03-02T01:55:57;98395.53;;;5.48;89.82
56950;BME280;74437;50.080;19.924;2024-03-02T01:58:22;98417.66;;;5.62;89.40
56950;BME280;74437;50.080;19.924;2024-03-02T02:00:48;98401.75;;;5.49;89.38
56950;BME280;74437;50.080;19.924;2024-03-02T02:03:13;98380.78;;;5.27;89.75
56950;BME280;74437;50.080;19.924;2024-03-02T02:05:39;98427.13;;;5.53;89.87
56950;BME280;74437;50.080;19.924;2024-03-02T02:08:04;98424.91;;;5.50;89.17
56950;BME280;74437;50.080;19.924;2024-03-02T02:10:30;98417.31;;;5.47;89.56
56950;BME280;74437;50.080;19.924;2024-03-02T02:12:56;98360.47;;;5.01;89.63
56950;BME280;74437;50.080;19.924;2024-03-02T02:15:26;98412.38;;;5.44;90.09
56950;BME280;74437;50.080;19.924;2024-03-02T02:17:52;98416.78;;;5.38;89.83
56950;BME280;74437;50.080;19.924;2024-03-02T02:20:18;98406.75;;;5.33;89.53
56950;BME280;74437;50.080;19.924;2024-03-02T02:23:13;98388.69;;;5.22;89.93
56950;BME280;74437;50.080;19.924;2024-03-02T02:25:38;98413.75;;;5.34;90.87
56950;BME280;74437;50.080;19.924;2024-03-02T02:28:04;98400.03;;;5.24;90.15
56950;BME280;74437;50.080;19.924;2024-03-02T02:30:31;98408.50;;;5.28;90.01
56950;BME280;74437;50.080;19.924;2024-03-02T02:32:57;98408.94;;;5.25;90.39
56950;BME280;74437;50.080;19.924;2024-03-02T02:35:23;98327.09;;;4.66;90.82
56950;BME280;74437;50.080;19.924;2024-03-02T02:37:52;98413.13;;;5.20;90.90
56950;BME280;74437;50.080;19.924;2024-03-02T02:40:18;98411.72;;;5.18;90.46
56950;BME280;74437;50.080;19.924;2024-03-02T02:42:44;98412.16;;;5.15;91.26
56950;BME280;74437;50.080;19.924;2024-03-02T02:45:10;98403.41;;;5.07;91.01
56950;BME280;74437;50.080;19.924;2024-03-02T02:47:38;98420.09;;;5.10;91.24
56950;BME280;74437;50.080;19.924;2024-03-02T02:50:04;98415.78;;;5.09;91.14
56950;BME280;74437;50.080;19.924;2024-03-02T02:52:35;98389.09;;;4.95;91.12
56950;BME280;74437;50.080;19.924;2024-03-02T02:55:03;98407.13;;;5.06;91.41
56950;BME280;74437;50.080;19.924;2024-03-02T02:57:28;98393.09;;;5.04;91.67
56950;BME280;74437;50.080;19.924;2024-03-02T02:59:56;98404.78;;;5.10;90.79
56950;BME280;74437;50.080;19.924;2024-03-02T03:02:21;98408.97;;;5.06;91.15
56950;BME280;74437;50.080;19.924;2024-03-02T03:04:47;98371.28;;;4.82;91.15
56950;BME280;74437;50.080;19.924;2024-03-02T03:07:12;98399.97;;;5.00;91.43
56950;BME280;74437;50.080;19.924;2024-03-02T03:09:37;98398.34;;;4.99;91.23
56950;BME280;74437;50.080;19.924;2024-03-02T03:12:04;98403.94;;;4.98;91.32
56950;BME280;74437;50.080;19.924;2024-03-02T03:14:29;98400.44;;;4.97;91.93
56950;BME280;74437;50.080;19.924;2024-03-02T03:16:54;98407.66;;;4.97;91.49
56950;BME280;74437;50.080;19.924;2024-03-02T03:19:20;98406.41;;;4.99;91.43
56950;BME280;74437;50.080;19.924;2024-03-02T03:21:45;98389.53;;;4.92;91.07
56950;BME280;74437;50.080;19.924;2024-03-02T03:24:10;98410.47;;;5.02;91.83
56950;BME280;74437;50.080;19.924;2024-03-02T03:26:36;98415.06;;;5.01;91.62
56950;BME280;74437;50.080;19.924;2024-03-02T03:29:02;98412.22;;;4.96;91.51
56950;BME280;74437;50.080;19.924;2024-03-02T03:31:28;98388.44;;;4.81;90.92
56950;BME280;74437;50.080;19.924;2024-03-02T03:33:53;98407.75;;;4.90;91.39
56950;BME280;74437;50.080;19.924;2024-03-02T03:36:18;98404.72;;;4.86;91.28
56950;BME280;74437;50.080;19.924;2024-03-02T03:38:44;98398.38;;;4.81;91.97
56950;BME280;74437;50.080;19.924;2024-03-02T03:41:09;98397.78;;;4.79;92.07
56950;BME280;74437;50.080;19.924;2024-03-02T03:43:35;98395.97;;;4.72;92.40
56950;BME280;74437;50.080;19.924;2024-03-02T03:46:01;98383.84;;;4.70;91.78
56950;BME280;74437;50.080;19.924;2024-03-02T03:48:27;98343.75;;;4.38;92.42
56950;BME280;74437;50.080;19.924;2024-03-02T03:50:56;98361.41;;;4.45;92.43
56950;BME280;74437;50.080;19.924;2024-03-02T03:53:21;98345.69;;;4.30;92.29
56950;BME280;74437;50.080;19.924;2024-03-02T03:55:47;98348.38;;;4.30;92.27
56950;BME280;74437;50.080;19.924;2024-03-02T03:58:14;98369.31;;;4.40;92.73
56950;BME280;74437;50.080;19.924;2024-03-02T04:00:41;98327.88;;;4.17;92.65
56950;BME280;74437;50.080;19.924;2024-03-02T04:03:07;98381.53;;;4.55;92.91
56950;BME280;74437;50.080;19.924;2024-03-02T04:05:32;98388.75;;;4.54;93.00
56950;BME280;74437;50.080;19.924;2024-03-02T04:07:57;98394.38;;;4.53;93.01
56950;BME280;74437;50.080;19.924;2024-03-02T04:10:23;98392.72;;;4.52;92.73
56950;BME280;74437;50.080;19.924;2024-03-02T04:12:49;98387.00;;;4.48;93.12
56950;BME280;74437;50.080;19.924;2024-03-02T04:15:15;98391.78;;;4.46;93.03
56950;BME280;74437;50.080;19.924;2024-03-02T04:17:41;98391.78;;;4.46;92.99
56950;BME280;74437;50.080;19.924;2024-03-02T04:20:06;98394.66;;;4.44;93.47
56950;BME280;74437;50.080;19.924;2024-03-02T04:22:33;98397.34;;;4.44;92.84
56950;BME280;74437;50.080;19.924;2024-03-02T04:24:58;98385.72;;;4.32;93.21
56950;BME280;74437;50.080;19.924;2024-03-02T04:27:23;98398.41;;;4.43;93.59
56950;BME280;74437;50.080;19.924;2024-03-02T04:29:49;98394.66;;;4.44;93.18
56950;BME280;74437;50.080;19.924;2024-03-02T04:32:14;98406.44;;;4.43;93.14
56950;BME280;74437;50.080;19.924;2024-03-02T04:34:40;98399.44;;;4.42;93.00
56950;BME280;74437;50.080;19.924;2024-03-02T04:37:05;98399.88;;;4.39;93.47
56950;BME280;74437;50.080;19.924;2024-03-02T04:39:31;98400.78;;;4.33;93.36
56950;BME280;74437;50.080;19.924;2024-03-02T04:41:56;98340.47;;;3.98;93.71
56950;BME280;74437;50.080;19.924;2024-03-02T04:44:22;98389.69;;;4.29;93.15
56950;BME280;74437;50.080;19.924;2024-03-02T04:46:47;98400.78;;;4.33;93.45
56950;BME280;74437;50.080;19.924;2024-03-02T04:49:13;98390.88;;;4.34;93.75
56950;BME280;74437;50.080;19.924;2024-03-02T04:51:38;98388.41;;;4.32;93.52
56950;BME280;74437;50.080;19.924;2024-03-02T04:54:03;98370.53;;;4.26;93.46
56950;BME280;74437;50.080;19.924;2024-03-02T04:56:29;98385.13;;;4.30;93.58
56950;BME280;74437;50.080;19.924;2024-03-02T04:58:57;98389.44;;;4.31;93.50
56950;BME280;74437;50.080;19.924;2024-03-02T05:01:22;98368.13;;;4.17;93.61
56950;BME280;74437;50.080;19.924;2024-03-02T05:03:48;98391.47;;;4.36;93.31
56950;BME280;74437;50.080;19.924;2024-03-02T05:06:13;98336.31;;;4.02;93.76
56950;BME280;74437;50.080;19.924;2024-03-02T05:08:38;98395.97;;;4.42;93.54
56950;BME280;74437;50.080;19.924;2024-03-02T05:11:04;98395.50;;;4.45;92.93
56950;BME280;74437;50.080;19.924;2024-03-02T05:13:47;98411.81;;;4.43;93.14
56950;BME280;74437;50.080;19.924;2024-03-02T05:16:13;98405.84;;;4.41;93.38
56950;BME280;74437;50.080;19.924;2024-03-02T05:18:39;98411.00;;;4.43;93.37
56950;BME280;74437;50.080;19.924;2024-03-02T05:21:05;98425.84;;;4.45;93.03
56950;BME280;74437;50.080;19.924;2024-03-02T05:23:30;98418.03;;;4.44;93.27
56950;BME280;74437;50.080;19.924;2024-03-02T05:25:56;98422.56;;;4.43;93.47
56950;BME280;74437;50.080;19.924;2024-03-02T05:28:21;98419.97;;;4.37;92.96
56950;BME280;74437;50.080;19.924;2024-03-02T05:30:46;98431.81;;;4.47;92.79
56950;BME280;74437;50.080;19.924;2024-03-02T05:33:12;98438.38;;;4.52;93.40
56950;BME280;74437;50.080;19.924;2024-03-02T05:35:37;98444.34;;;4.54;92.46
56950;BME280;74437;50.080;19.924;2024-03-02T05:38:03;98439.34;;;4.57;92.44
56950;BME280;74437;50.080;19.924;2024-03-02T05:40:28;98435.47;;;4.53;92.43
56950;BME280;74437;50.080;19.924;2024-03-02T05:42:54;98438.69;;;4.62;92.87
56950;BME280;74437;50.080;19.924;2024-03-02T05:45:19;98437.19;;;4.66;92.17
56950;BME280;74437;50.080;19.924;2024-03-02T05:47:44;98438.09;;;4.60;92.54
56950;BME280;74437;50.080;19.924;2024-03-02T05:50:10;98435.47;;;4.53;92.80
56950;BME280;74437;50.080;19.924;2024-03-02T05:52:35;98445.53;;;4.58;92.14
56950;BME280;74437;50.080;19.924;2024-03-02T05:55:00;98445.69;;;4.63;92.11
56950;BME280;74437;50.080;19.924;2024-03-02T05:57:26;98434.03;;;4.69;92.05
56950;BME280;74437;50.080;19.924;2024-03-02T06:00:11;98364.69;;;4.29;92.06
56950;BME280;74437;50.080;19.924;2024-03-02T06:02:39;98409.34;;;4.60;91.96
56950;BME280;74437;50.080;19.924;2024-03-02T06:05:06;98427.75;;;4.75;91.42
56950;BME280;74437;50.080;19.924;2024-03-02T06:07:32;98438.22;;;4.84;91.39
56950;BME280;74437;50.080;19.924;2024-03-02T06:09:57;98439.16;;;4.89;91.55
56950;BME280;74437;50.080;19.924;2024-03-02T06:12:23;98438.34;;;4.89;91.00
56950;BME280;74437;50.080;19.924;2024-03-02T06:14:49;98385.44;;;4.59;90.86
56950;BME280;74437;50.080;19.924;2024-03-02T06:17:14;98449.41;;;4.99;91.22
56950;BME280;74437;50.080;19.924;2024-03-02T06:19:40;98460.13;;;4.99;91.32
56950;BME280;74437;50.080;19.924;2024-03-02T06:22:05;98456.41;;;5.00;90.54
56950;BME280;74437;50.080;19.924;2024-03-02T06:24:31;98462.13;;;5.04;91.24
56950;BME280;74437;50.080;19.924;2024-03-02T06:26:56;98458.41;;;5.05;90.79
56950;BME280;74437;50.080;19.924;2024-03-02T06:29:21;98444.81;;;5.00;90.84
56950;BME280;74437;50.080;19.924;2024-03-02T06:31:47;98459.03;;;5.19;90.43
56950;BME280;74437;50.080;19.924;2024-03-02T06:34:12;98461.38;;;5.15;90.32
56950;BME280;74437;50.080;19.924;2024-03-02T06:36:38;98453.53;;;5.14;90.48
56950;BME280;74437;50.080;19.924;2024-03-02T06:39:03;98457.09;;;5.26;90.37
56950;BME280;74437;50.080;19.924;2024-03-02T06:41:29;98451.25;;;5.29;90.45
56950;BME280;74437;50.080;19.924;2024-03-02T06:43:54;98460.19;;;5.42;90.37
56950;BME280;74437;50.080;19.924;2024-03-02T06:46:25;98459.28;;;5.48;90.28
56950;BME280;74437;50.080;19.924;2024-03-02T06:48:50;98438.41;;;5.31;89.92
56950;BME280;74437;50.080;19.924;2024-03-02T06:51:15;98452.84;;;5.49;89.64
56950;BME280;74437;50.080;19.924;2024-03-02T06:53:41;98470.28;;;5.58;89.19
56950;BME280;74437;50.080;19.924;2024-03-02T06:56:07;98472.16;;;5.58;89.57
56950;BME280;74437;50.080;19.924;2024-03-02T06:58:33;98432.72;;;5.40;89.28
56950;BME280;74437;50.080;19.924;2024-03-02T07:00:58;98431.34;;;5.49;89.20
56950;BME280;74437;50.080;19.924;2024-03-02T07:03:25;98459.56;;;5.70;89.60
56950;BME280;74437;50.080;19.924;2024-03-02T07:05:51;98471.28;;;5.76;89.04
56950;BME280;74437;50.080;19.924;2024-03-02T07:08:16;98463.53;;;5.79;88.99
56950;BME280;74437;50.080;19.924;2024-03-02T07:10:41;98468.84;;;5.86;88.27
56950;BME280;74437;50.080;19.924;2024-03-02T07:13:07;98468.47;;;5.94;87.67
56950;BME280;74437;50.080;19.924;2024-03-02T07:15:32;98468.16;;;6.03;87.49
56950;BME280;74437;50.080;19.924;2024-03-02T07:18:16;98441.56;;;5.82;87.42
56950;BME280;74437;50.080;19.924;2024-03-02T07:20:41;98466.91;;;6.05;87.19
56950;BME280;74437;50.080;19.924;2024-03-02T07:23:06;98479.53;;;6.05;87.92
56950;BME280;74437;50.080;19.924;2024-03-02T07:25:32;98424.94;;;5.74;87.49
56950;BME280;74437;50.080;19.924;2024-03-02T07:27:57;98477.66;;;6.17;87.64
56950;BME280;74437;50.080;19.924;2024-03-02T07:30:23;98478.13;;;6.14;87.04
56950;BME280;74437;50.080;19.924;2024-03-02T07:32:50;98478.47;;;6.06;86.72
56950;BME280;74437;50.080;19.924;2024-03-02T07:35:16;98485.75;;;6.05;87.31
56950;BME280;74437;50.080;19.924;2024-03-02T07:37:42;98474.38;;;6.03;87.10
56950;BME280;74437;50.080;19.924;2024-03-02T07:40:08;98476.16;;;6.09;86.61
56950;BME280;74437;50.080;19.924;2024-03-02T07:42:40;98446.88;;;6.13;86.55
56950;BME280;74437;50.080;19.924;2024-03-02T07:45:06;98482.00;;;6.18;86.95
56950;BME280;74437;50.080;19.924;2024-03-02T07:47:33;98458.31;;;5.96;87.04
56950;BME280;74437;50.080;19.924;2024-03-02T07:49:59;98471.13;;;6.01;87.62
56950;BME280;74437;50.080;19.924;2024-03-02T07:52:24;98474.38;;;6.03;87.54
56950;BME280;74437;50.080;19.924;2024-03-02T07:54:49;98484.22;;;6.09;88.14
56950;BME280;74437;50.080;19.924;2024-03-02T07:57:15;98490.31;;;6.17;87.50
56950;BME280;74437;50.080;19.924;2024-03-02T07:59:40;98491.84;;;6.24;87.33
56950;BME280;74437;50.080;19.924;2024-03-02T08:02:06;98505.66;;;6.40;87.16
56950;BME280;74437;50.080;19.924;2024-03-02T08:04:32;98505.41;;;6.53;87.23
56950;BME280;74437;50.080;19.924;2024-03-02T08:06:57;98495.44;;;6.54;86.53
56950;BME280;74437;50.080;19.924;2024-03-02T08:09:23;98505.19;;;6.67;86.49
56950;BME280;74437;50.080;19.924;2024-03-02T08:11:48;98499.41;;;6.75;86.38
56950;BME280;74437;50.080;19.924;2024-03-02T08:14:14;98494.81;;;6.88;85.74
56950;BME280;74437;50.080;19.924;2024-03-02T08:16:40;98497.78;;;6.86;85.05
56950;BME280;74437;50.080;19.924;2024-03-02T08:19:05;98494.50;;;6.84;85.59
56950;BME280;74437;50.080;19.924;2024-03-02T08:21:30;98491.00;;;6.72;85.97
56950;BME280;74437;50.080;19.924;2024-03-02T08:23:57;98500.94;;;6.83;86.22
56950;BME280;74437;50.080;19.924;2024-03-02T08:26:23;98445.91;;;6.67;85.64
56950;BME280;74437;50.080;19.924;2024-03-02T08:28:48;98454.75;;;6.79;85.17
56950;BME280;74437;50.080;19.924;2024-03-02T08:31:14;98484.25;;;6.98;85.23
56950;BME280;74437;50.080;19.924;2024-03-02T08:33:39;98486.81;;;7.05;84.86
56950;BME280;74437;50.080;19.924;2024-03-02T08:36:05;98485.06;;;7.10;85.02
56950;BME280;74437;50.080;19.924;2024-03-02T08:38:31;98492.53;;;7.20;84.50
56950;BME280;74437;50.080;19.924;2024-03-02T08:40:57;98492.03;;;7.23;83.67
56950;BME280;74437;50.080;19.924;2024-03-02T08:43:22;98478.59;;;7.11;84.59
56950;BME280;74437;50.080;19.924;2024-03-02T08:45:48;98505.53;;;7.23;83.90
56950;BME280;74437;50.080;19.924;2024-03-02T08:48:13;98505.16;;;7.20;85.00
56950;BME280;74437;50.080;19.924;2024-03-02T08:50:38;98487.84;;;7.15;85.44
56950;BME280;74437;50.080;19.924;2024-03-02T08:53:04;98508.06;;;7.30;84.84
56950;BME280;74437;50.080;19.924;2024-03-02T08:55:30;98505.22;;;7.37;84.11
56950;BME280;74437;50.080;19.924;2024-03-02T08:57:55;98510.63;;;7.37;84.25
56950;BME280;74437;50.080;19.924;2024-03-02T09:00:21;98488.88;;;7.14;84.35
56950;BME280;74437;50.080;19.924;2024-03-02T09:02:47;98506.22;;;7.30;84.43
56950;BME280;74437;50.080;19.924;2024-03-02T09:05:12;98512.84;;;7.40;84.67
56950;BME280;74437;50.080;19.924;2024-03-02T09:07:38;98514.34;;;7.48;84.91
56950;BME280;74437;50.080;19.924;2024-03-02T09:10:05;98495.66;;;7.29;84.55
56950;BME280;74437;50.080;19.924;2024-03-02T09:12:30;98500.25;;;7.28;84.71
56950;BME280;74437;50.080;19.924;2024-03-02T09:14:55;98519.34;;;7.27;84.51
56950;BME280;74437;50.080;19.924;2024-03-02T09:17:21;98515.84;;;7.26;85.47
56950;BME280;74437;50.080;19.924;2024-03-02T09:19:46;98520.97;;;7.28;85.05
56950;BME280;74437;50.080;19.924;2024-03-02T09:22:12;98491.09;;;7.18;85.00
56950;BME280;74437;50.080;19.924;2024-03-02T09:24:38;98524.00;;;7.43;85.13
56950;BME280;74437;50.080;19.924;2024-03-02T09:27:03;98522.25;;;7.37;84.63
56950;BME280;74437;50.080;19.924;2024-03-02T09:29:29;98525.03;;;7.42;84.49
56950;BME280;74437;50.080;19.924;2024-03-02T09:31:55;98534.16;;;7.53;84.80
56950;BME280;74437;50.080;19.924;2024-03-02T09:34:20;98520.66;;;7.53;84.80
56950;BME280;74437;50.080;19.924;2024-03-02T09:36:46;98508.69;;;7.49;84.89
56950;BME280;74437;50.080;19.924;2024-03-02T09:39:11;98529.03;;;7.69;84.57
56950;BME280;74437;50.080;19.924;2024-03-02T09:41:37;98536.78;;;7.65;84.21
56950;BME280;74437;50.080;19.924;2024-03-02T09:44:04;98496.22;;;7.31;84.16
56950;BME280;74437;50.080;19.924;2024-03-02T09:46:30;98544.41;;;7.68;84.64
56950;BME280;74437;50.080;19.924;2024-03-02T09:48:55;98549.59;;;7.58;84.86
56950;BME280;74437;50.080;19.924;2024-03-02T09:51:20;98549.59;;;7.58;84.93
56950;BME280;74437;50.080;19.924;2024-03-02T09:53:47;98547.25;;;7.62;85.36
56950;BME280;74437;50.080;19.924;2024-03-02T09:56:12;98505.47;;;7.35;84.81
56950;BME280;74437;50.080;19.924;2024-03-02T09:58:38;98546.72;;;7.77;84.97
56950;BME280;74437;50.080;19.924;2024-03-02T10:01:07;98535.88;;;7.59;84.18
56950;BME280;74437;50.080;19.924;2024-03-02T10:03:33;98542.06;;;7.72;84.71
56950;BME280;74437;50.080;19.924;2024-03-02T10:06:18;98548.56;;;7.76;84.75
56950;BME280;74437;50.080;19.924;2024-03-02T10:08:44;98550.91;;;7.84;83.96
56950;BME280;74437;50.080;19.924;2024-03-02T10:11:09;98547.81;;;7.93;84.13
56950;BME280;74437;50.080;19.924;2024-03-02T10:13:34;98546.00;;;7.98;84.04
56950;BME280;74437;50.080;19.924;2024-03-02T10:16:11;98553.41;;;8.03;83.74
56950;BME280;74437;50.080;19.924;2024-03-02T10:18:37;98541.94;;;8.13;83.43
56950;BME280;74437;50.080;19.924;2024-03-02T10:21:14;98541.13;;;8.12;83.55
56950;BME280;74437;50.080;19.924;2024-03-02T10:23:40;98537.28;;;8.08;82.96
56950;BME280;74437;50.080;19.924;2024-03-02T10:26:26;98549.84;;;8.02;83.44
56950;BME280;74437;50.080;19.924;2024-03-02T10:28:51;98537.28;;;8.08;83.15
56950;BME280;74437;50.080;19.924;2024-03-02T10:31:24;98537.28;;;8.08;83.44
56950;BME280;74437;50.080;19.924;2024-03-02T10:33:57;98490.88;;;7.94;83.70
56950;BME280;74437;50.080;19.924;2024-03-02T10:36:23;98536.06;;;8.33;83.21
56950;BME280;74437;50.080;19.924;2024-03-02T10:38:51;98528.53;;;8.35;82.80
56950;BME280;74437;50.080;19.924;2024-03-02T10:41:23;98484.56;;;8.23;81.90
56950;BME280;74437;50.080;19.924;2024-03-02T10:43:51;98532.13;;;8.58;82.33
56950;BME280;74437;50.080;19.924;2024-03-02T10:46:19;98527.97;;;8.50;82.48
56950;BME280;74437;50.080;19.924;2024-03-02T10:48:46;98512.22;;;8.47;82.03
56950;BME280;74437;50.080;19.924;2024-03-02T10:51:11;98525.06;;;8.74;81.46
56950;BME280;74437;50.080;19.924;2024-03-02T10:53:37;98530.59;;;8.84;81.39
56950;BME280;74437;50.080;19.924;2024-03-02T10:56:07;98523.69;;;8.93;80.85
56950;BME280;74437;50.080;19.924;2024-03-02T10:58:33;98515.78;;;9.09;79.92
56950;BME280;74437;50.080;19.924;2024-03-02T11:01:03;98520.38;;;9.08;79.64
56950;BME280;74437;50.080;19.924;2024-03-02T11:03:33;98511.38;;;9.25;79.45
56950;BME280;74437;50.080;19.924;2024-03-02T11:06:00;98457.78;;;9.22;79.44
56950;BME280;74437;50.080;19.924;2024-03-02T11:08:27;98499.59;;;9.64;78.97
56950;BME280;74437;50.080;19.924;2024-03-02T11:10:58;98442.13;;;9.51;77.93
56950;BME280;74437;50.080;19.924;2024-03-02T11:13:34;98506.41;;;9.39;77.93
56950;BME280;74437;50.080;19.924;2024-03-02T11:16:05;98494.00;;;9.43;77.77
56950;BME280;74437;50.080;19.924;2024-03-02T11:18:32;98450.53;;;9.28;77.71
56950;BME280;74437;50.080;19.924;2024-03-02T11:20:59;98497.84;;;9.75;78.23
56950;BME280;74437;50.080;19.924;2024-03-02T11:23:34;98501.44;;;9.58;78.08
56950;BME280;74437;50.080;19.924;2024-03-02T11:26:19;98497.31;;;9.50;78.13
56950;BME280;74437;50.080;19.924;2024-03-02T11:28:45;98508.34;;;9.71;77.85
56950;BME280;74437;50.080;19.924;2024-03-02T11:31:11;98507.88;;;9.79;77.70
56950;BME280;74437;50.080;19.924;2024-03-02T11:33:36;98509.63;;;9.91;76.52
56950;BME280;74437;50.080;19.924;2024-03-02T11:36:02;98485.41;;;9.79;77.17
56950;BME280;74437;50.080;19.924;2024-03-02T11:38:30;98506.41;;;9.94;76.77
56950;BME280;74437;50.080;19.924;2024-03-02T11:40:56;98515.13;;;10.01;76.47
56950;BME280;74437;50.080;19.924;2024-03-02T11:43:22;98499.81;;;9.85;76.76
56950;BME280;74437;50.080;19.924;2024-03-02T11:45:48;98460.50;;;9.77;76.59
56950;BME280;74437;50.080;19.924;2024-03-02T11:48:15;98493.34;;;10.18;76.52
56950;BME280;74437;50.080;19.924;2024-03-02T11:50:49;98495.84;;;10.30;76.47
56950;BME280;74437;50.080;19.924;2024-03-02T11:53:14;98490.41;;;10.25;75.64
56950;BME280;74437;50.080;19.924;2024-03-02T11:55:41;98475.72;;;10.21;75.28
56950;BME280;74437;50.080;19.924;2024-03-02T11:58:07;98449.53;;;9.94;75.71
56950;BME280;74437;50.080;19.924;2024-03-02T12:00:33;98487.09;;;10.18;75.50
56950;BME280;74437;50.080;19.924;2024-03-02T12:05:27;98451.06;;;10.17;75.28
56950;BME280;74437;50.080;19.924;2024-03-02T12:08:04;98494.41;;;10.55;75.11
56950;BME280;74437;50.080;19.924;2024-03-02T12:10:30;98490.59;;;10.51;75.00
56950;BME280;74437;50.080;19.924;2024-03-02T12:13:03;98486.00;;;10.51;75.24
56950;BME280;74437;50.080;19.924;2024-03-02T12:15:31;98421.94;;;10.02;74.79
56950;BME280;74437;50.080;19.924;2024-03-02T12:17:57;98498.03;;;10.33;75.13
56950;BME280;74437;50.080;19.924;2024-03-02T12:20:24;98486.88;;;10.30;75.16
56950;BME280;74437;50.080;19.924;2024-03-02T12:22:51;98462.56;;;10.02;75.54
56950;BME280;74437;50.080;19.924;2024-03-02T12:25:18;98490.88;;;10.17;75.43
56950;BME280;74437;50.080;19.924;2024-03-02T12:27:45;98496.56;;;10.15;75.39
56950;BME280;74437;50.080;19.924;2024-03-02T12:30:11;98504.41;;;10.17;75.59
56950;BME280;74437;50.080;19.924;2024-03-02T12:32:39;98467.78;;;10.09;75.28
56950;BME280;74437;50.080;19.924;2024-03-02T12:35:05;98470.53;;;10.14;75.35
56950;BME280;74437;50.080;19.924;2024-03-02T12:37:31;98482.81;;;10.27;75.38
56950;BME280;74437;50.080;19.924;2024-03-02T12:39:56;98469.72;;;10.13;75.90
56950;BME280;74437;50.080;19.924;2024-03-02T12:42:24;98494.25;;;10.34;75.39
56950;BME280;74437;50.080;19.924;2024-03-02T12:44:51;98490.81;;;10.44;75.13
56950;BME280;74437;50.080;19.924;2024-03-02T12:47:19;98488.75;;;10.62;74.05
56950;BME280;74437;50.080;19.924;2024-03-02T12:49:45;98460.78;;;10.51;74.06
56950;BME280;74437;50.080;19.924;2024-03-02T12:52:12;98470.34;;;10.69;74.34
56950;BME280;74437;50.080;19.924;2024-03-02T12:54:38;98472.78;;;10.65;74.28
56950;BME280;74437;50.080;19.924;2024-03-02T12:57:03;98480.91;;;10.60;74.73
56950;BME280;74437;50.080;19.924;2024-03-02T12:59:29;98466.03;;;10.73;73.96
56950;BME280;74437;50.080;19.924;2024-03-02T13:01:55;98475.94;;;11.00;73.38